createdAt,value
2022-11-06T00:01:45.870Z,100066.00
2022-11-06T00:04:55.840Z,100061.40
2022-11-06T00:08:02.770Z,100056.60
2022-11-06T00:11:09.864Z,100060.80
2022-11-06T00:14:19.852Z,100065.40
2022-11-06T00:17:26.871Z,100064.60
2022-11-06T00:20:36.861Z,100062.80
2022-11-06T00:23:43.872Z,100068.60
2022-11-06T00:26:54.422Z,100069.00
2022-11-06T00:30:01.902Z,100066.20
2022-11-06T00:33:11.882Z,100069.40
2022-11-06T00:36:21.900Z,100065.40
2022-11-06T00:39:28.915Z,100074.20
2022-11-06T00:42:38.929Z,100069.00
2022-11-06T00:45:48.869Z,100075.80
2022-11-06T00:48:55.950Z,100083.00
2022-11-06T00:52:02.975Z,100083.60
2022-11-06T00:55:10.147Z,100080.20
2022-11-06T00:58:18.079Z,100080.40
2022-11-06T01:01:28.162Z,100077.00
2022-11-06T01:04:35.964Z,100079.80
2022-11-06T01:07:46.064Z,100079.80
2022-11-06T01:10:56.544Z,100080.80
2022-11-06T01:14:04.206Z,100078.60
2022-11-06T01:17:14.009Z,100080.60
2022-11-06T01:20:20.996Z,100079.80
2022-11-06T01:23:28.000Z,100076.60
2022-11-06T01:26:42.653Z,100075.40
2022-11-06T01:29:59.037Z,100075.40
2022-11-06T01:33:09.057Z,100078.80
2022-11-06T01:36:19.140Z,100077.20
2022-11-06T01:39:29.051Z,100070.40
2022-11-06T01:42:36.062Z,100075.80
2022-11-06T01:45:43.069Z,100078.60
2022-11-06T01:48:50.080Z,100084.80
2022-11-06T01:51:57.067Z,100080.00
2022-11-06T01:55:07.157Z,100081.00
2022-11-06T01:58:14.432Z,100078.00
2022-11-06T02:01:22.288Z,100080.00
2022-11-06T02:04:32.117Z,100079.00
2022-11-06T02:07:39.130Z,100080.40
2022-11-06T02:10:49.146Z,100080.00
2022-11-06T02:13:56.178Z,100078.60
2022-11-06T02:17:06.160Z,100081.00
2022-11-06T02:20:13.114Z,100082.60
2022-11-06T02:23:20.162Z,100080.60
2022-11-06T02:26:27.185Z,100087.80
2022-11-06T02:29:34.237Z,100088.80
2022-11-06T02:32:41.189Z,100092.20
2022-11-06T02:35:48.196Z,100094.00
2022-11-06T02:38:55.203Z,100096.20
2022-11-06T02:42:02.325Z,100097.20
2022-11-06T02:45:12.198Z,100097.00
2022-11-06T02:48:19.225Z,100101.60
2022-11-06T02:51:26.219Z,100102.60
2022-11-06T02:54:33.261Z,100104.20
2022-11-06T02:57:40.250Z,100097.80
2022-11-06T03:00:47.327Z,100098.20
2022-11-06T03:03:57.256Z,100097.40
2022-11-06T03:07:04.276Z,100104.40
2022-11-06T03:10:11.282Z,100107.20
2022-11-06T03:13:18.292Z,100106.20
2022-11-06T03:16:25.406Z,100105.80
2022-11-06T03:19:35.319Z,100116.00
2022-11-06T03:22:42.309Z,100116.40
2022-11-06T03:25:49.345Z,100122.20
2022-11-06T03:28:56.410Z,100130.00
2022-11-06T03:32:06.341Z,100123.20
2022-11-06T03:35:13.360Z,100122.00
2022-11-06T03:38:20.365Z,100120.20
2022-11-06T03:41:27.489Z,100123.00
2022-11-06T03:44:37.990Z,100116.40
2022-11-06T03:47:48.378Z,100118.20
2022-11-06T03:50:55.411Z,100119.00
2022-11-06T03:54:02.393Z,100123.00
2022-11-06T03:57:09.391Z,100126.40
2022-11-06T04:00:16.420Z,100124.00
2022-11-06T04:03:23.351Z,100120.00
2022-11-06T04:06:30.385Z,100127.00
2022-11-06T04:09:37.419Z,100125.20
2022-11-06T04:12:47.516Z,100127.20
2022-11-06T04:16:00.501Z,100122.40
2022-11-06T04:19:07.428Z,100124.80
2022-11-06T04:22:14.516Z,100125.60
2022-11-06T04:25:21.461Z,100121.60
2022-11-06T04:28:28.492Z,100122.20
2022-11-06T04:31:35.494Z,100126.60
2022-11-06T04:34:45.476Z,100120.60
2022-11-06T04:37:52.507Z,100125.00
2022-11-06T04:40:59.621Z,100122.60
2022-11-06T04:44:09.545Z,100123.20
2022-11-06T04:47:16.552Z,100130.80
2022-11-06T04:50:23.537Z,100136.40
2022-11-06T04:53:30.536Z,100133.80
2022-11-06T04:56:45.786Z,100139.80
2022-11-06T04:59:53.591Z,100143.00
2022-11-06T05:03:00.539Z,100138.60
2022-11-06T05:06:07.572Z,100143.20
2022-11-06T05:09:14.606Z,100138.60
2022-11-06T05:12:24.713Z,100143.00
2022-11-06T05:15:34.743Z,100143.60
2022-11-06T05:18:44.606Z,100141.40
2022-11-06T05:21:51.700Z,100150.60
2022-11-06T05:25:04.629Z,100155.20
2022-11-06T05:28:11.911Z,100161.40
2022-11-06T05:31:20.689Z,100163.60
2022-11-06T05:34:27.667Z,100171.60
2022-11-06T05:37:37.669Z,100174.60
2022-11-06T05:40:47.848Z,100177.40
2022-11-06T05:43:55.688Z,100185.00
2022-11-06T05:47:05.672Z,100190.60
2022-11-06T05:50:12.703Z,100191.40
2022-11-06T05:53:19.790Z,100195.20
2022-11-06T05:56:29.744Z,100201.60
2022-11-06T05:59:36.694Z,100203.40
2022-11-06T06:02:43.915Z,100206.80
2022-11-06T06:05:51.698Z,100206.20
2022-11-06T06:08:58.805Z,100216.40
2022-11-06T06:12:08.719Z,100216.80
2022-11-06T06:15:15.951Z,100218.80
2022-11-06T06:18:23.798Z,100222.60
2022-11-06T06:21:30.811Z,100213.60
2022-11-06T06:24:40.814Z,100219.00
2022-11-06T06:27:47.786Z,100222.40
2022-11-06T06:31:01.513Z,100228.80
2022-11-06T06:34:09.862Z,100237.40
2022-11-06T06:37:20.371Z,100242.00
2022-11-06T06:40:27.800Z,100246.80
2022-11-06T06:43:34.896Z,100253.00
2022-11-06T06:46:41.841Z,100261.00
2022-11-06T06:49:48.815Z,100266.20
2022-11-06T06:52:55.851Z,100267.40
2022-11-06T06:56:05.857Z,100265.20
2022-11-06T06:59:12.839Z,100267.80
2022-11-06T07:02:19.917Z,100275.20
2022-11-06T07:05:29.858Z,100274.80
2022-11-06T07:08:39.874Z,100274.80
2022-11-06T07:11:46.934Z,100268.80
2022-11-06T07:14:56.924Z,100262.80
2022-11-06T07:18:03.917Z,100270.60
2022-11-06T07:21:10.852Z,100266.80
2022-11-06T07:24:20.951Z,100271.80
2022-11-06T07:27:27.955Z,100271.40
2022-11-06T07:30:34.933Z,100276.20
2022-11-06T07:33:44.952Z,100268.40
2022-11-06T07:36:54.106Z,100273.00
2022-11-06T07:40:03.981Z,100277.40
2022-11-06T07:43:10.972Z,100275.60
2022-11-06T07:46:20.959Z,100280.00
2022-11-06T07:49:27.987Z,100280.40
2022-11-06T07:52:35.032Z,100271.80
2022-11-06T07:55:45.028Z,100281.00
2022-11-06T07:58:52.066Z,100278.60
2022-11-06T08:02:02.284Z,100283.00
2022-11-06T08:05:10.078Z,100289.60
2022-11-06T08:08:20.034Z,100286.60
2022-11-06T08:11:27.056Z,100289.20
2022-11-06T08:14:38.722Z,100284.40
2022-11-06T08:17:51.053Z,100288.40
2022-11-06T08:20:58.063Z,100287.60
2022-11-06T08:24:05.080Z,100287.60
2022-11-06T08:27:12.113Z,100295.60
2022-11-06T08:30:19.096Z,100299.00
2022-11-06T08:33:26.107Z,100303.40
2022-11-06T08:36:36.135Z,100303.80
2022-11-06T08:39:43.127Z,100304.80
2022-11-06T08:42:50.095Z,100308.60
2022-11-06T08:46:00.114Z,100315.60
2022-11-06T08:49:08.113Z,100314.40
2022-11-06T08:52:15.112Z,100314.80
2022-11-06T08:55:22.191Z,100318.20
2022-11-06T08:58:32.207Z,100312.60
2022-11-06T09:01:39.303Z,100314.20
2022-11-06T09:04:47.152Z,100312.00
2022-11-06T09:07:54.176Z,100314.20
2022-11-06T09:11:04.182Z,100322.40
2022-11-06T09:14:12.154Z,100317.80
2022-11-06T09:17:22.232Z,100322.00
2022-11-06T09:20:29.265Z,100322.60
2022-11-06T09:23:39.215Z,100334.20
2022-11-06T09:26:46.204Z,100331.00
2022-11-06T09:29:53.310Z,100328.60
2022-11-06T09:33:00.284Z,100322.20
2022-11-06T09:36:07.268Z,100326.20
2022-11-06T09:39:14.253Z,100332.00
2022-11-06T09:42:24.281Z,100329.40
2022-11-06T09:45:31.338Z,100325.20
2022-11-06T09:48:38.313Z,100324.60
2022-11-06T09:51:48.321Z,100320.40
2022-11-06T09:54:57.155Z,100316.40
2022-11-06T09:58:05.288Z,100317.40
2022-11-06T10:01:17.494Z,100317.60
2022-11-06T10:04:28.358Z,100324.00
2022-11-06T10:07:35.311Z,100320.60
2022-11-06T10:10:42.323Z,100323.60
2022-11-06T10:13:52.328Z,100316.20
2022-11-06T10:16:59.395Z,100314.20
2022-11-06T10:20:07.392Z,100312.20
2022-11-06T10:23:17.396Z,100319.60
2022-11-06T10:26:33.561Z,100318.40
2022-11-06T10:29:41.496Z,100312.00
2022-11-06T10:32:57.429Z,100308.20
2022-11-06T10:39:23.469Z,100302.00
2022-11-06T10:42:38.057Z,100305.40
2022-11-06T10:45:49.411Z,100299.80
2022-11-06T10:48:59.399Z,100291.60
2022-11-06T10:52:09.446Z,100289.80
2022-11-06T10:55:17.807Z,100287.40
2022-11-06T10:58:28.467Z,100291.20
2022-11-06T11:01:35.565Z,100287.60
2022-11-06T11:04:45.454Z,100284.40
2022-11-06T11:07:52.510Z,100286.60
2022-11-06T11:11:04.905Z,100285.80
2022-11-06T11:14:12.503Z,100281.80
2022-11-06T11:17:19.461Z,100285.60
2022-11-06T11:20:32.488Z,100279.60
2022-11-06T11:23:39.608Z,100283.60
2022-11-06T11:26:52.979Z,100285.00
2022-11-06T11:30:00.514Z,100286.20
2022-11-06T11:33:07.493Z,100282.20
2022-11-06T11:36:20.522Z,100279.20
2022-11-06T11:39:30.582Z,100278.00
2022-11-06T11:42:40.652Z,100279.00
2022-11-06T11:45:47.555Z,100281.60
2022-11-06T11:48:54.605Z,100276.40
2022-11-06T11:52:01.599Z,100267.40
2022-11-06T11:55:11.647Z,100270.80
2022-11-06T11:58:18.609Z,100265.20
2022-11-06T12:01:28.600Z,100264.60
2022-11-06T12:04:38.584Z,100261.40
2022-11-06T12:07:46.583Z,100261.20
2022-11-06T12:10:53.634Z,100260.40
2022-11-06T12:14:00.661Z,100262.80
2022-11-06T12:17:11.624Z,100259.00
2022-11-06T12:20:18.612Z,100262.60
2022-11-06T12:23:25.666Z,100262.80
2022-11-06T12:26:35.721Z,100265.40
2022-11-06T12:29:45.665Z,100266.20
2022-11-06T12:32:52.664Z,100269.60
2022-11-06T12:35:59.724Z,100270.60
2022-11-06T12:39:09.682Z,100268.00
2022-11-06T12:42:16.729Z,100264.80
2022-11-06T12:45:23.725Z,100263.20
2022-11-06T12:48:30.740Z,100267.60
2022-11-06T12:51:41.728Z,100272.80
2022-11-06T12:54:48.729Z,100269.80
2022-11-06T12:57:58.790Z,100269.00
2022-11-06T13:01:11.905Z,100262.80
2022-11-06T13:04:22.777Z,100266.20
2022-11-06T13:07:32.859Z,100269.00
2022-11-06T13:10:43.798Z,100267.80
2022-11-06T13:13:53.847Z,100273.60
2022-11-06T13:17:03.775Z,100272.20
2022-11-06T13:20:10.887Z,100275.40
2022-11-06T13:23:20.805Z,100279.00
2022-11-06T13:26:27.834Z,100274.40
2022-11-06T13:29:34.825Z,100280.60
2022-11-06T13:32:47.394Z,100284.40
2022-11-06T13:35:58.860Z,100284.20
2022-11-06T13:39:08.862Z,100286.80
2022-11-06T13:42:18.834Z,100285.40
2022-11-06T13:45:28.861Z,100288.00
2022-11-06T13:48:42.876Z,100285.20
2022-11-06T13:51:52.961Z,100289.80
2022-11-06T13:55:02.881Z,100291.00
2022-11-06T13:58:13.132Z,100304.40
2022-11-06T14:01:20.958Z,100299.20
2022-11-06T14:04:30.950Z,100307.00
2022-11-06T14:07:40.927Z,100307.20
2022-11-06T14:10:48.011Z,100304.40
2022-11-06T14:13:57.914Z,100301.00
2022-11-06T14:17:11.030Z,100294.60
2022-11-06T14:20:24.035Z,100297.60
2022-11-06T14:23:31.969Z,100298.80
2022-11-06T14:26:41.974Z,100303.80
2022-11-06T14:29:48.988Z,100305.00
2022-11-06T14:32:55.917Z,100305.60
2022-11-06T14:36:03.037Z,100306.40
2022-11-06T14:39:12.977Z,100303.80
2022-11-06T14:42:27.028Z,100308.60
2022-11-06T14:45:38.012Z,100312.00
2022-11-06T14:48:48.019Z,100319.20
2022-11-06T14:52:00.073Z,100317.20
2022-11-06T14:55:08.175Z,100317.60
2022-11-06T14:58:18.075Z,100318.80
2022-11-06T15:01:25.235Z,100316.60
2022-11-06T15:04:33.063Z,100322.40
2022-11-06T15:11:07.181Z,100325.60
2022-11-06T15:14:14.044Z,100325.60
2022-11-06T15:17:21.128Z,100330.00
2022-11-06T15:20:37.133Z,100331.80
2022-11-06T15:23:47.151Z,100336.20
2022-11-06T15:26:54.113Z,100336.80
2022-11-06T15:30:04.250Z,100337.20
2022-11-06T15:33:14.339Z,100343.60
2022-11-06T15:36:23.144Z,100342.60
2022-11-06T15:39:33.172Z,100349.00
2022-11-06T15:42:40.235Z,100348.00
2022-11-06T15:45:47.225Z,100356.60
2022-11-06T15:48:57.284Z,100359.60
2022-11-06T15:52:07.117Z,100364.80
2022-11-06T15:55:23.259Z,100366.60
2022-11-06T15:58:31.564Z,100369.80
2022-11-06T16:01:39.293Z,100369.60
2022-11-06T16:04:49.201Z,100377.20
2022-11-06T16:08:00.275Z,100378.60
2022-11-06T16:11:13.116Z,100380.00
2022-11-06T16:14:23.275Z,100389.40
2022-11-06T16:17:33.320Z,100389.20
2022-11-06T16:20:43.262Z,100395.20
2022-11-06T16:23:50.256Z,100394.00
2022-11-06T16:26:57.340Z,100399.80
2022-11-06T16:30:08.276Z,100402.80
2022-11-06T16:33:15.519Z,100413.80
2022-11-06T16:36:23.291Z,100418.40
2022-11-06T16:39:47.747Z,100420.80
2022-11-06T16:42:59.299Z,100419.80
2022-11-06T16:46:07.330Z,100425.00
2022-11-06T16:49:14.352Z,100425.40
2022-11-06T16:52:24.342Z,100426.20
2022-11-06T16:55:31.344Z,100432.20
2022-11-06T16:58:38.346Z,100430.60
2022-11-06T17:01:48.529Z,100433.60
2022-11-06T17:04:56.364Z,100432.40
2022-11-06T17:08:09.411Z,100431.40
2022-11-06T17:11:19.389Z,100434.60
2022-11-06T17:14:29.402Z,100432.00
2022-11-06T17:17:42.394Z,100436.80
2022-11-06T17:20:49.363Z,100435.60
2022-11-06T17:24:07.651Z,100443.20
2022-11-06T17:27:26.441Z,100447.20
2022-11-06T17:30:33.451Z,100448.20
2022-11-06T17:33:43.419Z,100450.20
2022-11-06T17:36:53.430Z,100445.20
2022-11-06T17:40:04.389Z,100449.60
2022-11-06T17:43:11.732Z,100449.60
2022-11-06T17:46:19.534Z,100449.20
2022-11-06T17:49:29.495Z,100455.00
2022-11-06T17:52:39.532Z,100460.20
2022-11-06T17:55:53.475Z,100464.40
2022-11-06T17:59:00.559Z,100467.20
2022-11-06T18:02:07.601Z,100471.60
2022-11-06T18:05:15.516Z,100474.60
2022-11-06T18:08:22.493Z,100472.60
2022-11-06T18:11:46.539Z,100477.00
2022-11-06T18:14:54.533Z,100473.40
2022-11-06T18:18:04.592Z,100477.40
2022-11-06T18:21:11.525Z,100484.80
2022-11-06T18:24:18.559Z,100484.00
2022-11-06T18:27:26.596Z,100482.80
2022-11-06T18:30:33.531Z,100483.00
2022-11-06T18:33:43.590Z,100488.00
2022-11-06T18:36:53.583Z,100491.00
2022-11-06T18:40:03.607Z,100494.00
2022-11-06T18:43:13.624Z,100496.80
2022-11-06T18:46:20.620Z,100498.00
2022-11-06T18:49:27.648Z,100498.40
2022-11-06T18:52:56.240Z,100503.60
2022-11-06T18:56:07.654Z,100507.60
2022-11-06T18:59:17.623Z,100508.80
2022-11-06T19:02:27.837Z,100507.40
2022-11-06T19:05:35.667Z,100503.60
2022-11-06T19:08:42.679Z,100510.00
2022-11-06T19:11:52.693Z,100511.20
2022-11-06T19:14:59.673Z,100514.40
2022-11-06T19:18:06.741Z,100514.60
2022-11-06T19:21:16.722Z,100519.20
2022-11-06T19:24:23.724Z,100526.40
2022-11-06T19:27:33.704Z,100521.60
2022-11-06T19:30:43.749Z,100518.40
2022-11-06T19:33:50.761Z,100515.60
2022-11-06T19:36:57.734Z,100513.20
2022-11-06T19:40:06.351Z,100528.20
2022-11-06T19:43:16.921Z,100532.00
2022-11-06T19:46:29.711Z,100531.60
2022-11-06T19:49:38.810Z,100535.00
2022-11-06T19:52:53.368Z,100531.00
2022-11-06T19:56:03.805Z,100541.00
2022-11-06T19:59:13.803Z,100539.80
2022-11-06T20:02:23.908Z,100541.40
2022-11-06T20:05:31.816Z,100543.00
2022-11-06T20:08:38.948Z,100545.20
2022-11-06T20:11:46.807Z,100543.60
2022-11-06T20:14:59.827Z,100544.40
2022-11-06T20:18:09.869Z,100549.80
2022-11-06T20:21:19.891Z,100553.80
2022-11-06T20:24:29.875Z,100557.00
2022-11-06T20:27:40.911Z,100551.00
2022-11-06T20:30:50.977Z,100553.40
2022-11-06T20:33:59.869Z,100548.60
2022-11-06T20:37:10.878Z,100550.80
2022-11-06T20:40:20.927Z,100554.00
2022-11-06T20:43:30.893Z,100556.80
2022-11-06T20:46:40.893Z,100553.00
2022-11-06T20:49:47.924Z,100554.20
2022-11-06T20:52:55.010Z,100561.60
2022-11-06T20:56:04.917Z,100568.20
2022-11-06T20:59:17.992Z,100565.00
2022-11-06T21:02:28.065Z,100568.20
2022-11-06T21:05:37.952Z,100560.60
2022-11-06T21:08:44.947Z,100569.20
2022-11-06T21:11:54.975Z,100570.80
2022-11-06T21:15:05.009Z,100574.40
2022-11-06T21:18:14.984Z,100576.60
2022-11-06T21:21:22.031Z,100582.20
2022-11-06T21:24:31.996Z,100588.00
2022-11-06T21:27:42.006Z,100586.80
2022-11-06T21:30:51.998Z,100591.40
2022-11-06T21:33:59.023Z,100589.60
2022-11-06T21:37:06.047Z,100590.60
2022-11-06T21:40:13.147Z,100584.40
2022-11-06T21:43:21.039Z,100585.00
2022-11-06T21:46:31.047Z,100588.20
2022-11-06T21:49:41.067Z,100587.20
2022-11-06T21:52:48.091Z,100588.80
2022-11-06T21:55:58.072Z,100590.20
2022-11-06T21:59:05.165Z,100595.00
2022-11-06T22:02:18.291Z,100593.40
2022-11-06T22:05:26.123Z,100589.00
2022-11-06T22:08:36.103Z,100586.80
2022-11-06T22:11:43.124Z,100587.60
2022-11-06T22:14:50.076Z,100593.20
2022-11-06T22:17:57.138Z,100586.80
2022-11-06T22:21:07.143Z,100585.60
2022-11-06T22:24:14.170Z,100588.60
2022-11-06T22:27:34.636Z,100591.00
2022-11-06T22:30:51.189Z,100591.00
2022-11-06T22:34:01.124Z,100590.40
2022-11-06T22:37:09.179Z,100587.00
2022-11-06T22:40:16.200Z,100589.00
2022-11-06T22:43:26.229Z,100583.60
2022-11-06T22:46:35.156Z,100585.00
2022-11-06T22:49:45.300Z,100580.20
2022-11-06T22:52:55.215Z,100583.40
2022-11-06T22:56:05.246Z,100586.60
2022-11-06T22:59:12.243Z,100585.80
2022-11-06T23:02:19.378Z,100587.80
2022-11-06T23:05:29.259Z,100585.40
2022-11-06T23:08:44.199Z,100588.80
2022-11-06T23:11:54.276Z,100588.60
2022-11-06T23:15:04.285Z,100593.40
2022-11-06T23:18:14.277Z,100593.80
2022-11-06T23:21:24.292Z,100592.00
2022-11-06T23:24:34.302Z,100596.80
2022-11-06T23:27:48.660Z,100594.20
2022-11-06T23:30:57.324Z,100597.40
2022-11-06T23:34:04.330Z,100598.60
2022-11-06T23:37:11.434Z,100593.20
2022-11-06T23:40:21.337Z,100590.40
2022-11-06T23:43:28.354Z,100596.60
2022-11-06T23:46:35.333Z,100596.00
2022-11-06T23:49:42.427Z,100602.00
2022-11-06T23:52:52.451Z,100603.80
2022-11-06T23:55:59.404Z,100607.80
2022-11-06T23:59:06.338Z,100607.60
